createdAt,value
2022-12-05T00:00:21.401Z,79.91
2022-12-05T00:01:21.356Z,80.08
2022-12-05T00:02:21.464Z,79.87
2022-12-05T00:03:21.350Z,79.77
2022-12-05T00:04:21.399Z,79.98
2022-12-05T00:05:21.314Z,79.87
2022-12-05T00:06:21.324Z,79.87
2022-12-05T00:07:21.329Z,79.77
2022-12-05T00:08:21.367Z,80.08
2022-12-05T00:09:21.259Z,79.87
2022-12-05T00:10:21.257Z,80.08
2022-12-05T00:11:21.242Z,79.87
2022-12-05T00:12:21.317Z,79.87
2022-12-05T00:13:21.219Z,79.77
2022-12-05T00:14:21.207Z,79.77
2022-12-05T00:15:21.197Z,79.77
2022-12-05T00:16:21.261Z,79.66
2022-12-05T00:17:21.176Z,79.98
2022-12-05T00:18:21.290Z,79.77
2022-12-05T00:19:21.146Z,79.98
2022-12-05T00:20:21.145Z,79.98
2022-12-05T00:21:21.128Z,79.77
2022-12-05T00:22:21.226Z,79.77
2022-12-05T00:23:21.105Z,79.87
2022-12-05T00:24:21.118Z,80.08
2022-12-05T00:25:21.085Z,79.98
2022-12-05T00:26:21.076Z,79.87
2022-12-05T00:27:21.060Z,80.08
2022-12-05T00:28:21.051Z,80.29
2022-12-05T00:29:21.046Z,80.08
2022-12-05T00:30:21.040Z,80.19
2022-12-05T00:31:21.056Z,79.98
2022-12-05T00:32:21.100Z,79.98
2022-12-05T00:33:21.016Z,79.87
2022-12-05T00:34:21.015Z,79.98
2022-12-05T00:35:20.991Z,80.08
2022-12-05T00:36:21.002Z,79.98
2022-12-05T00:37:20.945Z,79.77
2022-12-05T00:38:21.054Z,79.83
2022-12-05T00:39:20.930Z,79.98
2022-12-05T00:40:20.917Z,79.83
2022-12-05T00:41:20.943Z,80.08
2022-12-05T00:42:20.944Z,80.05
2022-12-05T00:43:20.886Z,79.87
2022-12-05T00:44:20.874Z,79.98
2022-12-05T00:45:20.854Z,79.87
2022-12-05T00:46:20.928Z,79.94
2022-12-05T00:47:20.834Z,80.05
2022-12-05T00:48:20.868Z,79.77
2022-12-05T00:49:20.819Z,80.15
2022-12-05T00:50:20.825Z,79.94
2022-12-05T00:51:20.796Z,80.05
2022-12-05T00:52:20.776Z,80.05
2022-12-05T00:53:20.771Z,79.52
2022-12-05T00:54:20.794Z,79.66
2022-12-05T00:55:20.750Z,79.73
2022-12-05T00:56:20.732Z,79.87
2022-12-05T00:57:20.729Z,79.42
2022-12-05T00:58:20.709Z,79.52
2022-12-05T00:59:20.771Z,79.73
2022-12-05T01:00:20.727Z,79.63
2022-12-05T01:01:20.753Z,79.63
2022-12-05T01:02:20.675Z,79.83
2022-12-05T01:03:20.733Z,79.83
2022-12-05T01:04:20.648Z,79.63
2022-12-05T01:05:20.649Z,79.52
2022-12-05T01:06:20.673Z,79.73
2022-12-05T01:07:20.621Z,79.73
2022-12-05T01:08:20.661Z,79.73
2022-12-05T01:09:20.595Z,79.52
2022-12-05T01:10:20.696Z,79.21
2022-12-05T01:11:20.570Z,79.42
2022-12-05T01:12:20.702Z,79.38
2022-12-05T01:13:20.546Z,79.63
2022-12-05T01:14:20.569Z,79.38
2022-12-05T01:15:20.531Z,79.49
2022-12-05T01:16:20.586Z,79.38
2022-12-05T01:17:20.508Z,79.38
2022-12-05T01:18:20.589Z,79.59
2022-12-05T01:19:20.486Z,79.59
2022-12-05T01:20:20.471Z,79.49
2022-12-05T01:21:20.465Z,79.28
2022-12-05T01:22:20.484Z,79.69
2022-12-05T01:23:20.445Z,79.69
2022-12-05T01:24:20.464Z,79.69
2022-12-05T01:25:20.413Z,79.45
2022-12-05T01:26:20.405Z,79.69
2022-12-05T01:27:20.393Z,79.59
2022-12-05T01:28:20.386Z,79.59
2022-12-05T01:29:20.507Z,79.55
2022-12-05T01:30:20.391Z,79.87
2022-12-05T01:31:20.378Z,79.49
2022-12-05T01:32:20.397Z,79.55
2022-12-05T01:33:20.476Z,79.55
2022-12-05T01:34:20.322Z,79.76
2022-12-05T01:35:20.303Z,79.69
2022-12-05T01:36:20.324Z,79.87
2022-12-05T01:37:20.279Z,79.66
2022-12-05T01:38:20.312Z,79.66
2022-12-05T01:39:20.287Z,79.45
2022-12-05T01:40:20.248Z,79.55
2022-12-05T01:41:20.240Z,79.45
2022-12-05T01:42:24.708Z,80.08
2022-12-05T01:43:21.218Z,79.45
2022-12-05T01:44:20.206Z,79.66
2022-12-05T01:45:20.186Z,79.76
2022-12-05T01:46:20.290Z,79.62
2022-12-05T01:47:20.170Z,79.66
2022-12-05T01:48:20.190Z,79.45
2022-12-05T01:49:20.149Z,79.62
2022-12-05T01:50:20.140Z,79.62
2022-12-05T01:51:20.123Z,79.41
2022-12-05T01:52:20.153Z,79.41
2022-12-05T01:53:20.107Z,79.52
2022-12-05T01:54:20.207Z,79.31
2022-12-05T01:55:20.085Z,79.72
2022-12-05T01:56:20.093Z,79.41
2022-12-05T01:57:20.060Z,79.72
2022-12-05T01:58:20.048Z,79.58
2022-12-05T01:59:20.044Z,79.58
2022-12-05T02:00:20.036Z,79.72
2022-12-05T02:01:20.088Z,79.41
2022-12-05T02:02:20.118Z,80.04
2022-12-05T02:03:20.000Z,79.62
2022-12-05T02:04:20.046Z,79.72
2022-12-05T02:05:19.985Z,79.72
2022-12-05T02:06:20.011Z,79.62
2022-12-05T02:07:20.000Z,79.83
2022-12-05T02:08:20.162Z,79.38
2022-12-05T02:09:19.932Z,79.41
2022-12-05T02:10:19.944Z,79.41
2022-12-05T02:11:19.914Z,79.38
2022-12-05T02:12:19.968Z,79.41
2022-12-05T02:13:19.885Z,79.38
2022-12-05T02:14:19.866Z,79.48
2022-12-05T02:15:19.877Z,79.48
2022-12-05T02:16:19.918Z,79.58
2022-12-05T02:17:19.842Z,79.17
2022-12-05T02:18:19.880Z,79.38
2022-12-05T02:19:19.816Z,79.90
2022-12-05T02:20:19.871Z,79.58
2022-12-05T02:21:19.790Z,79.55
2022-12-05T02:22:19.807Z,79.34
2022-12-05T02:23:19.801Z,79.48
2022-12-05T02:24:19.795Z,79.03
2022-12-05T02:25:19.754Z,79.34
2022-12-05T02:26:19.762Z,79.34
2022-12-05T02:27:19.728Z,79.13
2022-12-05T02:28:19.715Z,79.48
2022-12-05T02:29:19.701Z,79.44
2022-12-05T02:30:19.756Z,79.76
2022-12-05T02:31:19.812Z,79.27
2022-12-05T02:32:19.679Z,79.44
2022-12-05T02:33:19.664Z,79.76
2022-12-05T02:34:19.648Z,79.38
2022-12-05T02:35:19.639Z,79.65
2022-12-05T02:36:19.671Z,79.65
2022-12-05T02:37:19.618Z,79.55
2022-12-05T02:38:19.606Z,79.34
2022-12-05T02:39:19.596Z,79.97
2022-12-05T02:40:19.579Z,79.65
2022-12-05T02:41:19.595Z,79.55
2022-12-05T02:42:19.674Z,79.69
2022-12-05T02:43:19.555Z,79.58
2022-12-05T02:44:19.671Z,79.34
2022-12-05T02:45:19.529Z,79.55
2022-12-05T02:46:19.586Z,79.55
2022-12-05T02:47:19.534Z,79.55
2022-12-05T02:48:19.527Z,80.07
2022-12-05T02:49:19.505Z,79.80
2022-12-05T02:50:19.473Z,79.55
2022-12-05T02:51:19.499Z,79.76
2022-12-05T02:52:19.453Z,79.90
2022-12-05T02:53:19.449Z,79.80
2022-12-05T02:54:19.465Z,79.58
2022-12-05T02:55:19.416Z,79.80
2022-12-05T02:56:19.408Z,79.58
2022-12-05T02:57:19.425Z,79.55
2022-12-05T02:58:19.418Z,79.55
2022-12-05T02:59:23.311Z,79.65
2022-12-05T03:00:19.378Z,79.97
2022-12-05T03:01:19.377Z,79.80
2022-12-05T03:02:19.337Z,79.76
2022-12-05T03:03:19.357Z,79.97
2022-12-05T03:04:19.376Z,79.48
2022-12-05T03:05:19.306Z,79.65
2022-12-05T03:06:19.335Z,79.34
2022-12-05T03:07:19.325Z,79.34
2022-12-05T03:08:19.363Z,79.34
2022-12-05T03:09:19.263Z,79.55
2022-12-05T03:10:19.306Z,79.55
2022-12-05T03:11:19.244Z,79.65
2022-12-05T03:12:19.271Z,79.65
2022-12-05T03:13:19.222Z,79.34
2022-12-05T03:14:19.234Z,79.55
2022-12-05T03:15:19.208Z,79.55
2022-12-05T03:16:19.289Z,79.65
2022-12-05T03:17:19.187Z,79.44
2022-12-05T03:18:19.190Z,79.44
2022-12-05T03:19:19.157Z,79.20
2022-12-05T03:20:19.149Z,79.65
2022-12-05T03:21:19.132Z,79.24
2022-12-05T03:22:19.118Z,79.55
2022-12-05T03:23:19.108Z,79.41
2022-12-05T03:24:19.152Z,79.30
2022-12-05T03:25:19.095Z,79.55
2022-12-05T03:26:19.111Z,79.30
2022-12-05T03:27:19.091Z,79.30
2022-12-05T03:28:19.066Z,79.30
2022-12-05T03:29:19.046Z,79.72
2022-12-05T03:30:19.094Z,79.51
2022-12-05T03:31:19.100Z,79.61
2022-12-05T03:32:19.012Z,79.83
2022-12-05T03:33:19.002Z,79.41
2022-12-05T03:34:18.988Z,79.41
2022-12-05T03:35:19.116Z,80.04
2022-12-05T03:36:19.016Z,79.93
2022-12-05T03:37:18.955Z,79.51
2022-12-05T03:38:18.950Z,79.20
2022-12-05T03:39:18.952Z,79.61
2022-12-05T03:40:18.920Z,79.30
2022-12-05T03:41:18.916Z,79.30
2022-12-05T03:42:18.926Z,79.30
2022-12-05T03:43:18.890Z,79.30
2022-12-05T03:44:18.894Z,79.30
2022-12-05T03:45:18.867Z,79.30
2022-12-05T03:46:19.011Z,79.30
2022-12-05T03:47:18.842Z,79.41
2022-12-05T03:48:18.884Z,79.30
2022-12-05T03:49:18.839Z,79.30
2022-12-05T03:50:18.824Z,79.93
2022-12-05T03:51:18.806Z,79.10
2022-12-05T03:52:18.791Z,79.51
2022-12-05T03:53:20.350Z,79.48
2022-12-05T03:54:18.884Z,79.20
2022-12-05T03:55:18.789Z,79.20
2022-12-05T03:56:18.744Z,79.48
2022-12-05T03:57:18.732Z,79.38
2022-12-05T03:58:18.727Z,79.83
2022-12-05T03:59:18.713Z,79.38
2022-12-05T04:00:18.756Z,79.38
2022-12-05T04:01:18.848Z,79.27
2022-12-05T04:02:18.712Z,79.48
2022-12-05T04:03:18.711Z,79.48
2022-12-05T04:04:18.651Z,79.38
2022-12-05T04:05:18.649Z,79.38
2022-12-05T04:06:18.658Z,79.38
2022-12-05T04:07:18.622Z,79.27
2022-12-05T04:08:18.814Z,79.38
2022-12-05T04:09:18.601Z,79.48
2022-12-05T04:10:18.592Z,79.38
2022-12-05T04:11:18.576Z,79.48
2022-12-05T04:12:18.634Z,79.17
2022-12-05T04:13:18.554Z,79.38
2022-12-05T04:14:18.541Z,79.17
2022-12-05T04:15:18.554Z,79.27
2022-12-05T04:16:18.637Z,79.38
2022-12-05T04:17:18.517Z,79.27
2022-12-05T04:18:18.579Z,79.48
2022-12-05T04:19:18.511Z,79.27
2022-12-05T04:20:18.491Z,79.48
2022-12-05T04:21:18.501Z,79.27
2022-12-05T04:22:18.470Z,79.17
2022-12-05T04:23:18.445Z,79.27
2022-12-05T04:24:18.483Z,79.27
2022-12-05T04:25:18.431Z,79.27
2022-12-05T04:26:18.412Z,79.27
2022-12-05T04:27:18.418Z,79.27
2022-12-05T04:28:21.791Z,79.06
2022-12-05T04:29:18.380Z,79.24
2022-12-05T04:30:18.425Z,79.85
2022-12-05T04:31:18.432Z,79.13
2022-12-05T04:32:18.345Z,79.17
2022-12-05T04:33:18.338Z,79.27
2022-12-05T04:34:18.356Z,79.17
2022-12-05T04:35:18.312Z,79.13
2022-12-05T04:36:18.327Z,79.17
2022-12-05T04:37:18.289Z,79.44
2022-12-05T04:38:18.285Z,79.34
2022-12-05T04:39:18.576Z,79.24
2022-12-05T04:40:18.255Z,79.34
2022-12-05T04:41:18.256Z,79.34
2022-12-05T04:42:18.267Z,79.13
2022-12-05T04:43:18.222Z,79.24
2022-12-05T04:44:18.216Z,79.13
2022-12-05T04:45:18.222Z,79.13
2022-12-05T04:46:18.278Z,79.24
2022-12-05T04:47:18.193Z,79.55
2022-12-05T04:48:18.201Z,79.27
2022-12-05T04:49:18.155Z,79.34
2022-12-05T04:50:18.175Z,79.44
2022-12-05T04:51:18.136Z,79.13
2022-12-05T04:52:18.124Z,79.44
2022-12-05T04:53:18.117Z,79.24
2022-12-05T04:54:18.125Z,79.34
2022-12-05T04:55:18.088Z,79.13
2022-12-05T04:56:18.076Z,79.65
2022-12-05T04:57:18.092Z,79.34
2022-12-05T04:58:18.054Z,79.24
2022-12-05T04:59:18.065Z,79.24
2022-12-05T05:00:18.062Z,79.55
2022-12-05T05:01:18.148Z,79.24
2022-12-05T05:02:18.014Z,79.10
2022-12-05T05:03:18.194Z,79.20
2022-12-05T05:04:17.987Z,79.10
2022-12-05T05:05:18.003Z,79.82
2022-12-05T05:06:18.066Z,79.41
2022-12-05T05:07:17.957Z,79.82
2022-12-05T05:08:18.048Z,79.34
2022-12-05T05:09:17.926Z,79.61
2022-12-05T05:10:17.922Z,79.61
2022-12-05T05:11:17.909Z,79.41
2022-12-05T05:12:19.390Z,79.51
2022-12-05T05:13:17.885Z,79.51
2022-12-05T05:14:17.877Z,79.71
2022-12-05T05:15:17.865Z,79.61
2022-12-05T05:16:17.949Z,79.71
2022-12-05T05:17:17.847Z,79.30
2022-12-05T05:18:17.840Z,79.20
2022-12-05T05:19:17.818Z,79.10
2022-12-05T05:20:19.967Z,79.20
2022-12-05T05:21:17.795Z,79.20
2022-12-05T05:22:17.809Z,79.20
2022-12-05T05:23:17.773Z,79.20
2022-12-05T05:24:17.804Z,79.10
2022-12-05T05:25:17.754Z,79.30
2022-12-05T05:26:17.746Z,79.30
2022-12-05T05:27:17.773Z,79.30
2022-12-05T05:28:17.720Z,79.41
2022-12-05T05:29:17.712Z,79.51
2022-12-05T05:30:17.798Z,79.20
2022-12-05T05:31:17.735Z,79.51
2022-12-05T05:32:17.675Z,79.55
2022-12-05T05:33:17.665Z,79.55
2022-12-05T05:34:17.650Z,79.30
2022-12-05T05:35:17.668Z,79.34
2022-12-05T05:36:17.648Z,79.44
2022-12-05T05:37:17.620Z,79.51
2022-12-05T05:38:17.649Z,79.24
2022-12-05T05:39:17.588Z,79.20
2022-12-05T05:40:17.590Z,79.10
2022-12-05T05:41:17.567Z,79.20
2022-12-05T05:42:17.625Z,79.20
2022-12-05T05:43:17.548Z,79.24
2022-12-05T05:44:17.535Z,79.10
2022-12-05T05:45:17.530Z,79.41
2022-12-05T05:46:17.545Z,79.20
2022-12-05T05:47:17.508Z,79.30
2022-12-05T05:48:17.532Z,79.30
2022-12-05T05:49:17.486Z,79.51
2022-12-05T05:50:21.425Z,79.30
2022-12-05T05:51:17.463Z,79.20
2022-12-05T05:52:17.451Z,79.51
2022-12-05T05:53:17.458Z,79.30
2022-12-05T05:54:17.494Z,79.41
2022-12-05T05:55:17.445Z,79.51
2022-12-05T05:56:21.451Z,79.55
2022-12-05T05:57:20.382Z,79.10
2022-12-05T05:58:17.384Z,79.41
2022-12-05T05:59:17.374Z,79.51
2022-12-05T06:00:17.390Z,79.41
2022-12-05T06:01:17.352Z,79.51
2022-12-05T06:02:17.344Z,79.41
2022-12-05T06:03:17.505Z,79.41
2022-12-05T06:04:17.370Z,79.10
2022-12-05T06:05:17.341Z,79.61
2022-12-05T06:06:17.323Z,79.51
2022-12-05T06:07:17.279Z,79.41
2022-12-05T06:08:17.386Z,79.20
2022-12-05T06:09:17.259Z,79.20
2022-12-05T06:10:17.273Z,79.20
2022-12-05T06:11:24.568Z,79.30
2022-12-05T06:12:18.319Z,79.41
2022-12-05T06:13:17.211Z,79.30
2022-12-05T06:14:17.200Z,79.20
2022-12-05T06:15:17.213Z,79.20
2022-12-05T06:16:17.238Z,79.20
2022-12-05T06:17:17.190Z,79.41
2022-12-05T06:18:17.178Z,79.61
2022-12-05T06:19:17.140Z,79.20
2022-12-05T06:20:17.138Z,79.51
2022-12-05T06:21:17.136Z,79.41
2022-12-05T06:22:17.191Z,79.41
2022-12-05T06:23:17.138Z,79.44
2022-12-05T06:24:17.100Z,79.51
2022-12-05T06:25:17.083Z,79.85
2022-12-05T06:26:17.093Z,79.30
2022-12-05T06:27:17.058Z,79.30
2022-12-05T06:28:17.046Z,79.82
2022-12-05T06:29:20.538Z,79.51
2022-12-05T06:30:18.059Z,79.44
2022-12-05T06:31:17.080Z,79.51
2022-12-05T06:32:17.076Z,79.61
2022-12-05T06:33:17.006Z,79.41
2022-12-05T06:34:16.979Z,79.20
2022-12-05T06:35:16.973Z,79.41
2022-12-05T06:36:16.987Z,79.30
2022-12-05T06:37:17.141Z,79.30
2022-12-05T06:38:16.930Z,79.51
2022-12-05T06:39:16.932Z,79.61
2022-12-05T06:40:16.909Z,79.30
2022-12-05T06:41:17.199Z,79.61
2022-12-05T06:42:16.941Z,79.51
2022-12-05T06:43:16.915Z,79.30
2022-12-05T06:44:16.868Z,79.37
2022-12-05T06:45:16.888Z,79.37
2022-12-05T06:46:16.879Z,79.58
2022-12-05T06:47:16.832Z,79.37
2022-12-05T06:48:16.953Z,79.37
2022-12-05T06:49:16.812Z,79.47
2022-12-05T06:50:16.799Z,79.37
2022-12-05T06:51:17.413Z,79.47
2022-12-05T06:52:16.805Z,79.27
2022-12-05T06:53:16.769Z,79.27
2022-12-05T06:54:16.800Z,79.06
2022-12-05T06:55:16.745Z,79.16
2022-12-05T06:56:16.777Z,79.47
2022-12-05T06:57:16.719Z,79.47
2022-12-05T06:58:16.763Z,79.13
2022-12-05T06:59:16.713Z,79.47
2022-12-05T07:00:16.744Z,79.47
2022-12-05T07:01:16.775Z,79.16
2022-12-05T07:02:16.789Z,79.13
2022-12-05T07:03:16.685Z,79.47
2022-12-05T07:04:16.690Z,79.23
2022-12-05T07:05:16.634Z,79.23
2022-12-05T07:06:16.664Z,79.13
2022-12-05T07:07:16.641Z,79.13
2022-12-05T07:08:16.700Z,79.44
2022-12-05T07:09:16.593Z,79.33
2022-12-05T07:10:16.582Z,79.44
2022-12-05T07:11:16.559Z,79.33
2022-12-05T07:12:16.624Z,79.44
2022-12-05T07:13:16.549Z,79.13
2022-12-05T07:14:38.957Z,79.02
2022-12-05T07:15:17.524Z,79.09
2022-12-05T07:16:16.625Z,79.30
2022-12-05T07:17:16.608Z,79.19
2022-12-05T07:18:16.494Z,79.09
2022-12-05T07:19:16.473Z,79.19
2022-12-05T07:20:16.465Z,79.30
2022-12-05T07:21:16.498Z,79.30
2022-12-05T07:22:16.598Z,78.99
2022-12-05T07:23:16.442Z,79.19
2022-12-05T07:24:16.452Z,79.30
2022-12-05T07:25:16.402Z,79.05
2022-12-05T07:26:16.405Z,79.05
2022-12-05T07:27:20.591Z,79.26
2022-12-05T07:28:17.380Z,79.16
2022-12-05T07:29:16.380Z,79.36
2022-12-05T07:30:16.409Z,79.36
2022-12-05T07:31:16.465Z,79.26
2022-12-05T07:32:16.408Z,79.16
2022-12-05T07:33:16.322Z,79.05
2022-12-05T07:34:16.309Z,79.05
2022-12-05T07:35:16.317Z,79.26
2022-12-05T07:36:16.319Z,79.05
2022-12-05T07:37:16.279Z,79.16
2022-12-05T07:38:16.271Z,79.36
2022-12-05T07:39:16.270Z,79.36
2022-12-05T07:40:16.250Z,79.05
2022-12-05T07:41:16.234Z,79.36
2022-12-05T07:42:16.296Z,78.95
2022-12-05T07:43:16.207Z,79.16
2022-12-05T07:44:16.190Z,79.22
2022-12-05T07:45:16.185Z,78.95
2022-12-05T07:46:16.413Z,79.16
2022-12-05T07:47:16.990Z,79.02
2022-12-05T07:48:18.771Z,79.26
2022-12-05T07:49:16.138Z,79.22
2022-12-05T07:50:16.129Z,79.22
2022-12-05T07:51:16.110Z,79.26
2022-12-05T07:52:16.126Z,79.22
2022-12-05T07:53:16.088Z,78.91
2022-12-05T07:54:16.124Z,79.22
2022-12-05T07:55:16.133Z,79.12
2022-12-05T07:56:16.099Z,79.63
2022-12-05T07:57:16.058Z,79.26
2022-12-05T07:58:16.035Z,79.53
2022-12-05T07:59:16.028Z,79.22
2022-12-05T08:00:16.044Z,79.12
2022-12-05T08:01:16.084Z,79.43
2022-12-05T08:02:16.147Z,79.53
2022-12-05T08:03:15.990Z,79.43
2022-12-05T08:04:16.173Z,79.43
2022-12-05T08:05:15.950Z,79.22
2022-12-05T08:06:15.973Z,79.39
2022-12-05T08:07:15.956Z,79.29
2022-12-05T08:08:16.010Z,79.19
2022-12-05T08:09:15.930Z,79.19
2022-12-05T08:10:15.899Z,79.19
2022-12-05T08:11:15.932Z,79.22
2022-12-05T08:12:15.902Z,79.53
2022-12-05T08:13:15.886Z,79.43
2022-12-05T08:14:15.901Z,79.08
2022-12-05T08:15:15.845Z,79.19
2022-12-05T08:16:15.898Z,79.19
2022-12-05T08:17:15.880Z,79.08
2022-12-05T08:18:15.894Z,79.08
2022-12-05T08:19:16.454Z,78.98
2022-12-05T08:20:15.786Z,78.88
2022-12-05T08:21:15.803Z,78.88
2022-12-05T08:22:15.764Z,78.98
2022-12-05T08:23:15.777Z,78.63
2022-12-05T08:24:15.775Z,78.67
2022-12-05T08:25:15.753Z,78.56
2022-12-05T08:26:16.434Z,78.22
2022-12-05T08:27:15.714Z,78.32
2022-12-05T08:28:15.713Z,78.42
2022-12-05T08:29:15.705Z,78.22
2022-12-05T08:30:15.863Z,78.53
2022-12-05T08:31:15.768Z,78.84
2022-12-05T08:32:15.760Z,78.53
2022-12-05T08:33:15.647Z,78.63
2022-12-05T08:34:15.711Z,78.63
2022-12-05T08:35:15.636Z,78.63
2022-12-05T08:36:15.753Z,78.49
2022-12-05T08:37:15.610Z,78.74
2022-12-05T08:38:15.630Z,78.32
2022-12-05T08:39:15.571Z,78.63
2022-12-05T08:40:15.590Z,78.22
2022-12-05T08:41:15.560Z,78.63
2022-12-05T08:42:15.668Z,78.22
2022-12-05T08:43:15.529Z,78.63
2022-12-05T08:44:15.527Z,78.42
2022-12-05T08:45:15.519Z,78.63
2022-12-05T08:46:15.586Z,78.74
2022-12-05T08:47:16.437Z,78.63
2022-12-05T08:48:15.516Z,79.15
2022-12-05T08:49:15.463Z,78.94
2022-12-05T08:50:15.480Z,79.11
2022-12-05T08:51:15.435Z,79.01
2022-12-05T08:52:15.438Z,79.11
2022-12-05T08:53:15.416Z,78.91
2022-12-05T08:54:15.474Z,79.32
2022-12-05T08:55:15.396Z,78.80
2022-12-05T08:56:15.390Z,79.01
2022-12-05T08:57:15.435Z,79.11
2022-12-05T08:58:15.367Z,79.11
2022-12-05T08:59:15.352Z,79.01
2022-12-05T09:00:15.352Z,79.11
2022-12-05T09:01:15.469Z,79.11
2022-12-05T09:02:15.378Z,78.91
2022-12-05T09:03:15.310Z,79.42
2022-12-05T09:04:15.315Z,79.22
2022-12-05T09:05:27.865Z,79.11
2022-12-05T09:06:16.335Z,79.11
2022-12-05T09:07:15.281Z,78.80
2022-12-05T09:08:15.313Z,79.01
2022-12-05T09:09:15.251Z,79.11
2022-12-05T09:10:15.227Z,78.91
2022-12-05T09:11:15.217Z,78.77
2022-12-05T09:12:15.241Z,79.08
2022-12-05T09:13:15.219Z,78.70
2022-12-05T09:14:15.183Z,78.87
2022-12-05T09:15:15.199Z,78.45
2022-12-05T09:16:15.197Z,78.91
2022-12-05T09:17:15.149Z,78.97
2022-12-05T09:18:15.220Z,79.08
2022-12-05T09:19:15.126Z,78.97
2022-12-05T09:20:15.110Z,78.87
2022-12-05T09:21:15.127Z,78.73
2022-12-05T09:22:15.112Z,78.77
2022-12-05T09:23:16.273Z,78.97
2022-12-05T09:24:15.135Z,78.87
2022-12-05T09:25:15.057Z,78.73
2022-12-05T09:26:15.075Z,78.52
2022-12-05T09:27:15.032Z,78.52
2022-12-05T09:28:15.031Z,78.83
2022-12-05T09:29:17.207Z,78.63
2022-12-05T09:30:15.156Z,79.04
2022-12-05T09:31:15.107Z,78.73
2022-12-05T09:32:14.996Z,78.63
2022-12-05T09:33:14.975Z,79.11
2022-12-05T09:34:15.001Z,78.80
2022-12-05T09:35:14.971Z,78.69
2022-12-05T09:36:14.975Z,78.73
2022-12-05T09:37:37.503Z,78.69
2022-12-05T09:38:15.937Z,78.90
2022-12-05T09:39:14.908Z,78.49
2022-12-05T09:40:14.887Z,78.59
2022-12-05T09:41:14.942Z,78.59
2022-12-05T09:42:14.917Z,78.28
2022-12-05T09:43:14.856Z,78.24
2022-12-05T09:44:14.856Z,78.14
2022-12-05T09:45:14.874Z,78.04
2022-12-05T09:46:14.929Z,77.80
2022-12-05T09:47:14.819Z,77.94
2022-12-05T09:48:14.834Z,77.69
2022-12-05T09:49:14.785Z,77.69
2022-12-05T09:50:14.782Z,77.59
2022-12-05T09:51:14.804Z,77.76
2022-12-05T09:52:14.757Z,77.76
2022-12-05T09:53:14.766Z,77.66
2022-12-05T09:54:14.778Z,77.76
2022-12-05T09:55:14.721Z,77.62
2022-12-05T09:56:14.757Z,77.83
2022-12-05T09:57:14.706Z,77.93
2022-12-05T09:58:14.705Z,77.93
2022-12-05T09:59:14.677Z,77.62
2022-12-05T10:00:14.700Z,77.72
2022-12-05T10:01:14.723Z,77.72
2022-12-05T10:02:14.740Z,77.83
2022-12-05T10:03:14.631Z,77.62
2022-12-05T10:04:14.674Z,77.62
2022-12-05T10:05:14.677Z,77.62
2022-12-05T10:06:14.637Z,77.72
2022-12-05T10:07:14.591Z,77.62
2022-12-05T10:08:14.661Z,77.83
2022-12-05T10:09:14.566Z,77.62
2022-12-05T10:10:19.997Z,77.62
2022-12-05T10:11:15.576Z,77.76
2022-12-05T10:12:14.566Z,77.72
2022-12-05T10:13:14.523Z,77.83
2022-12-05T10:14:14.546Z,77.86
2022-12-05T10:15:14.501Z,77.66
2022-12-05T10:16:14.551Z,77.66
2022-12-05T10:17:14.508Z,77.76
2022-12-05T10:18:14.505Z,78.17
2022-12-05T10:19:14.510Z,78.00
2022-12-05T10:20:14.443Z,78.41
2022-12-05T10:21:14.435Z,78.62
2022-12-05T10:22:20.116Z,78.62
2022-12-05T10:23:34.689Z,78.83
2022-12-05T10:24:15.426Z,78.83
2022-12-05T10:25:14.387Z,78.69
2022-12-05T10:26:14.428Z,78.83
2022-12-05T10:27:14.361Z,78.31
2022-12-05T10:28:14.364Z,78.48
2022-12-05T10:29:14.540Z,78.48
2022-12-05T10:30:14.953Z,78.21
2022-12-05T10:31:14.414Z,78.28
2022-12-05T10:32:14.329Z,77.86
2022-12-05T10:33:14.303Z,78.17
2022-12-05T10:34:14.295Z,77.97
2022-12-05T10:35:14.303Z,78.07
2022-12-05T10:36:14.324Z,78.07
2022-12-05T10:37:14.261Z,78.14
2022-12-05T10:38:14.247Z,78.07
2022-12-05T10:39:14.239Z,77.93
2022-12-05T10:40:14.218Z,77.93
2022-12-05T10:41:14.515Z,77.93
2022-12-05T10:42:14.233Z,77.93
2022-12-05T10:43:14.276Z,77.93
2022-12-05T10:44:14.175Z,78.44
2022-12-05T10:45:14.168Z,78.44
2022-12-05T10:46:17.300Z,78.44
2022-12-05T10:47:14.319Z,78.14
2022-12-05T10:48:14.131Z,78.10
2022-12-05T10:49:14.118Z,78.24
2022-12-05T10:50:14.136Z,78.34
2022-12-05T10:51:14.099Z,78.41
2022-12-05T10:52:14.094Z,78.41
2022-12-05T10:53:14.101Z,78.20
2022-12-05T10:54:14.065Z,78.30
2022-12-05T10:55:14.157Z,78.51
2022-12-05T10:56:30.768Z,78.41
2022-12-05T10:57:15.033Z,78.51
2022-12-05T10:58:17.271Z,78.51
2022-12-05T10:59:14.030Z,78.20
2022-12-05T11:00:14.001Z,78.51
2022-12-05T11:01:14.023Z,78.51
2022-12-05T11:02:14.067Z,78.51
2022-12-05T11:03:15.426Z,78.61
2022-12-05T11:04:14.072Z,78.68
2022-12-05T11:05:14.196Z,78.72
2022-12-05T11:06:13.928Z,78.99
2022-12-05T11:07:13.919Z,78.47
2022-12-05T11:08:13.991Z,78.78
2022-12-05T11:09:13.896Z,78.78
2022-12-05T11:10:13.888Z,78.78
2022-12-05T11:11:13.896Z,78.89
2022-12-05T11:12:13.967Z,78.75
2022-12-05T11:13:13.855Z,78.89
2022-12-05T11:14:13.869Z,78.75
2022-12-05T11:15:13.906Z,78.44
2022-12-05T11:16:13.835Z,79.05
2022-12-05T11:17:13.861Z,78.96
2022-12-05T11:18:13.801Z,78.96
2022-12-05T11:19:13.790Z,78.64
2022-12-05T11:20:13.773Z,78.96
2022-12-05T11:21:13.794Z,79.16
2022-12-05T11:22:13.747Z,78.85
2022-12-05T11:23:13.757Z,78.96
2022-12-05T11:24:13.731Z,78.54
2022-12-05T11:25:13.715Z,78.64
2022-12-05T11:26:13.707Z,78.44
2022-12-05T11:27:13.690Z,78.75
2022-12-05T11:28:13.688Z,78.75
2022-12-05T11:29:13.783Z,78.44
2022-12-05T11:30:13.687Z,78.50
2022-12-05T11:31:13.768Z,78.40
2022-12-05T11:32:13.637Z,78.44
2022-12-05T11:33:13.630Z,78.44
2022-12-05T11:34:13.616Z,78.64
2022-12-05T11:35:13.638Z,78.40
2022-12-05T11:36:13.650Z,78.40
2022-12-05T11:37:13.581Z,78.40
2022-12-05T11:38:13.570Z,78.50
2022-12-05T11:39:13.562Z,78.30
2022-12-05T11:40:13.546Z,78.40
2022-12-05T11:41:14.030Z,78.40
2022-12-05T11:42:13.548Z,78.71
2022-12-05T11:43:13.526Z,78.61
2022-12-05T11:44:13.501Z,78.30
2022-12-05T11:45:13.599Z,78.16
2022-12-05T11:46:13.598Z,78.16
2022-12-05T11:47:13.556Z,78.16
2022-12-05T11:48:13.453Z,78.47
2022-12-05T11:49:13.441Z,78.47
2022-12-05T11:50:13.455Z,78.36
2022-12-05T11:51:13.480Z,78.16
2022-12-05T11:52:13.586Z,78.27
2022-12-05T11:53:13.445Z,78.23
2022-12-05T11:54:13.383Z,78.53
2022-12-05T11:55:13.411Z,78.43
2022-12-05T11:56:13.364Z,78.53
2022-12-05T11:57:13.361Z,78.33
2022-12-05T11:58:13.360Z,78.33
2022-12-05T11:59:13.484Z,78.33
2022-12-05T12:00:13.320Z,78.53
2022-12-05T12:01:13.320Z,78.53
2022-12-05T12:02:13.446Z,78.85
2022-12-05T12:03:13.339Z,78.74
2022-12-05T12:04:13.309Z,78.85
2022-12-05T12:05:13.359Z,78.74
2022-12-05T12:06:13.259Z,78.81
2022-12-05T12:07:13.244Z,78.91
2022-12-05T12:08:13.414Z,78.50
2022-12-05T12:09:13.222Z,78.70
2022-12-05T12:10:13.976Z,78.53
2022-12-05T12:11:13.255Z,78.60
2022-12-05T12:12:13.186Z,78.91
2022-12-05T12:13:13.179Z,78.60
2022-12-05T12:14:13.165Z,78.70
2022-12-05T12:15:13.151Z,78.50
2022-12-05T12:16:13.205Z,78.70
2022-12-05T12:17:13.251Z,78.70
2022-12-05T12:18:14.016Z,78.50
2022-12-05T12:19:13.111Z,78.81
2022-12-05T12:20:13.134Z,78.81
2022-12-05T12:21:13.980Z,78.91
2022-12-05T12:22:13.074Z,78.91
2022-12-05T12:23:13.162Z,78.29
2022-12-05T12:24:13.057Z,78.50
2022-12-05T12:25:13.059Z,78.50
2022-12-05T12:26:13.038Z,78.50
2022-12-05T12:27:13.025Z,78.81
2022-12-05T12:28:13.992Z,78.81
2022-12-05T12:29:13.525Z,78.81
2022-12-05T12:30:12.992Z,79.01
2022-12-05T12:31:13.112Z,78.70
2022-12-05T12:32:13.055Z,79.01
2022-12-05T12:33:12.949Z,78.50
2022-12-05T12:34:12.963Z,78.39
2022-12-05T12:35:12.966Z,78.70
2022-12-05T12:36:12.919Z,79.01
2022-12-05T12:37:12.964Z,78.81
2022-12-05T12:38:12.899Z,78.81
2022-12-05T12:39:12.886Z,79.01
2022-12-05T12:40:12.877Z,78.60
2022-12-05T12:41:12.919Z,78.70
2022-12-05T12:42:12.855Z,78.91
2022-12-05T12:43:25.459Z,78.50
2022-12-05T12:44:13.833Z,78.97
2022-12-05T12:45:12.819Z,78.56
2022-12-05T12:46:12.848Z,78.60
2022-12-05T12:47:12.852Z,78.60
2022-12-05T12:48:12.836Z,78.60
2022-12-05T12:49:12.777Z,78.60
2022-12-05T12:50:12.797Z,78.70
2022-12-05T12:51:12.771Z,78.60
2022-12-05T12:52:12.774Z,78.60